sensor_id;sensor_type;location;lat;lon;timestamp;P1;durP1;ratioP1;P2;durP2;ratioP2
71979;SDS011;59853;48.190;11.860;2022-12-07T00:02:01;11.50;;;5.78;;
71979;SDS011;59853;48.190;11.860;2022-12-07T00:04:26;9.40;;;5.28;;
71979;SDS011;59853;48.190;11.860;2022-12-07T00:06:52;11.23;;;5.70;;
71979;SDS011;59853;48.190;11.860;2022-12-07T00:09:19;11.80;;;6.00;;
71979;SDS011;59853;48.190;11.860;2022-12-07T00:11:44;12.02;;;6.00;;
71979;SDS011;59853;48.190;11.860;2022-12-07T00:14:15;10.73;;;5.40;;
71979;SDS011;59853;48.190;11.860;2022-12-07T00:16:42;10.57;;;5.50;;
71979;SDS011;59853;48.190;11.860;2022-12-07T00:19:08;11.13;;;5.45;;
71979;SDS011;59853;48.190;11.860;2022-12-07T00:21:35;11.32;;;5.47;;
71979;SDS011;59853;48.190;11.860;2022-12-07T00:24:02;10.75;;;5.43;;
71979;SDS011;59853;48.190;11.860;2022-12-07T00:26:33;11.63;;;5.50;;
71979;SDS011;59853;48.190;11.860;2022-12-07T00:29:03;10.02;;;5.43;;
71979;SDS011;59853;48.190;11.860;2022-12-07T00:31:31;11.65;;;5.50;;
71979;SDS011;59853;48.190;11.860;2022-12-07T00:34:00;10.95;;;5.30;;
71979;SDS011;59853;48.190;11.860;2022-12-07T00:36:26;11.18;;;5.65;;
71979;SDS011;59853;48.190;11.860;2022-12-07T00:38:51;11.77;;;6.07;;
71979;SDS011;59853;48.190;11.860;2022-12-07T00:41:18;9.13;;;5.32;;
71979;SDS011;59853;48.190;11.860;2022-12-07T00:43:48;14.27;;;6.60;;
71979;SDS011;59853;48.190;11.860;2022-12-07T00:46:14;10.13;;;5.28;;
71979;SDS011;59853;48.190;11.860;2022-12-07T00:48:40;11.15;;;6.00;;
71979;SDS011;59853;48.190;11.860;2022-12-07T00:51:06;11.45;;;5.72;;
71979;SDS011;59853;48.190;11.860;2022-12-07T00:53:36;9.85;;;4.97;;
71979;SDS011;59853;48.190;11.860;2022-12-07T00:56:06;10.95;;;5.47;;
71979;SDS011;59853;48.190;11.860;2022-12-07T00:58:36;11.35;;;5.80;;
71979;SDS011;59853;48.190;11.860;2022-12-07T01:01:02;10.35;;;5.43;;
71979;SDS011;59853;48.190;11.860;2022-12-07T01:03:29;12.60;;;6.15;;
71979;SDS011;59853;48.190;11.860;2022-12-07T01:05:55;12.32;;;5.57;;
71979;SDS011;59853;48.190;11.860;2022-12-07T01:08:21;12.02;;;6.07;;
71979;SDS011;59853;48.190;11.860;2022-12-07T01:10:48;12.55;;;6.05;;
71979;SDS011;59853;48.190;11.860;2022-12-07T01:13:14;10.95;;;6.13;;
71979;SDS011;59853;48.190;11.860;2022-12-07T01:15:40;11.80;;;5.95;;
71979;SDS011;59853;48.190;11.860;2022-12-07T01:18:06;11.63;;;5.60;;
71979;SDS011;59853;48.190;11.860;2022-12-07T01:20:32;11.65;;;5.95;;
71979;SDS011;59853;48.190;11.860;2022-12-07T01:22:58;12.40;;;6.38;;
71979;SDS011;59853;48.190;11.860;2022-12-07T01:25:23;11.43;;;5.93;;
71979;SDS011;59853;48.190;11.860;2022-12-07T01:27:49;11.00;;;5.47;;
71979;SDS011;59853;48.190;11.860;2022-12-07T01:30:14;12.27;;;6.10;;
71979;SDS011;59853;48.190;11.860;2022-12-07T01:32:40;11.15;;;6.20;;
71979;SDS011;59853;48.190;11.860;2022-12-07T01:35:05;10.98;;;5.90;;
71979;SDS011;59853;48.190;11.860;2022-12-07T01:37:37;13.18;;;6.72;;
71979;SDS011;59853;48.190;11.860;2022-12-07T01:40:04;11.75;;;5.63;;
71979;SDS011;59853;48.190;11.860;2022-12-07T01:42:31;12.75;;;6.22;;
71979;SDS011;59853;48.190;11.860;2022-12-07T01:47:41;14.57;;;6.57;;
71979;SDS011;59853;48.190;11.860;2022-12-07T01:50:09;11.35;;;6.13;;
71979;SDS011;59853;48.190;11.860;2022-12-07T01:52:34;11.10;;;6.07;;
71979;SDS011;59853;48.190;11.860;2022-12-07T01:55:03;14.48;;;6.53;;
71979;SDS011;59853;48.190;11.860;2022-12-07T01:57:32;11.52;;;5.97;;
71979;SDS011;59853;48.190;11.860;2022-12-07T01:59:59;13.65;;;7.03;;
71979;SDS011;59853;48.190;11.860;2022-12-07T02:02:39;11.38;;;6.60;;
71979;SDS011;59853;48.190;11.860;2022-12-07T02:05:08;14.73;;;6.30;;
71979;SDS011;59853;48.190;11.860;2022-12-07T02:07:34;12.35;;;6.18;;
71979;SDS011;59853;48.190;11.860;2022-12-07T02:15:49;12.10;;;6.30;;
71979;SDS011;59853;48.190;11.860;2022-12-07T02:18:22;12.77;;;6.03;;
71979;SDS011;59853;48.190;11.860;2022-12-07T02:23:50;13.25;;;6.80;;
71979;SDS011;59853;48.190;11.860;2022-12-07T02:27:02;16.48;;;6.55;;
71979;SDS011;59853;48.190;11.860;2022-12-07T02:29:40;15.32;;;6.95;;
71979;SDS011;59853;48.190;11.860;2022-12-07T02:32:16;13.55;;;6.40;;
71979;SDS011;59853;48.190;11.860;2022-12-07T02:34:55;11.98;;;6.07;;
71979;SDS011;59853;48.190;11.860;2022-12-07T02:37:29;14.30;;;6.82;;
71979;SDS011;59853;48.190;11.860;2022-12-07T02:40:07;15.07;;;7.35;;
71979;SDS011;59853;48.190;11.860;2022-12-07T02:42:37;13.50;;;6.38;;
71979;SDS011;59853;48.190;11.860;2022-12-07T02:45:05;14.93;;;6.80;;
71979;SDS011;59853;48.190;11.860;2022-12-07T02:47:32;14.55;;;7.00;;
71979;SDS011;59853;48.190;11.860;2022-12-07T02:49:58;15.90;;;7.38;;
71979;SDS011;59853;48.190;11.860;2022-12-07T02:52:24;14.15;;;7.43;;
71979;SDS011;59853;48.190;11.860;2022-12-07T02:54:49;15.27;;;6.82;;
71979;SDS011;59853;48.190;11.860;2022-12-07T03:02:38;14.57;;;6.93;;
71979;SDS011;59853;48.190;11.860;2022-12-07T03:05:25;16.17;;;7.18;;
71979;SDS011;59853;48.190;11.860;2022-12-07T03:11:09;14.48;;;6.90;;
71979;SDS011;59853;48.190;11.860;2022-12-07T03:16:20;13.32;;;6.38;;
71979;SDS011;59853;48.190;11.860;2022-12-07T03:18:58;15.77;;;6.93;;
71979;SDS011;59853;48.190;11.860;2022-12-07T03:24:31;15.23;;;6.72;;
71979;SDS011;59853;48.190;11.860;2022-12-07T03:27:05;16.35;;;7.47;;
71979;SDS011;59853;48.190;11.860;2022-12-07T03:29:35;13.70;;;6.40;;
71979;SDS011;59853;48.190;11.860;2022-12-07T03:35:06;14.35;;;6.97;;
71979;SDS011;59853;48.190;11.860;2022-12-07T03:37:37;20.13;;;8.68;;
71979;SDS011;59853;48.190;11.860;2022-12-07T03:42:45;14.68;;;7.28;;
71979;SDS011;59853;48.190;11.860;2022-12-07T03:45:11;16.50;;;7.85;;
71979;SDS011;59853;48.190;11.860;2022-12-07T03:47:43;13.55;;;7.50;;
71979;SDS011;59853;48.190;11.860;2022-12-07T03:52:55;15.60;;;7.45;;
71979;SDS011;59853;48.190;11.860;2022-12-07T03:55:27;13.73;;;7.15;;
71979;SDS011;59853;48.190;11.860;2022-12-07T03:57:59;17.35;;;7.85;;
71979;SDS011;59853;48.190;11.860;2022-12-07T04:00:27;18.33;;;8.98;;
71979;SDS011;59853;48.190;11.860;2022-12-07T04:02:53;15.98;;;7.60;;
71979;SDS011;59853;48.190;11.860;2022-12-07T04:05:18;15.90;;;6.95;;
71979;SDS011;59853;48.190;11.860;2022-12-07T04:07:44;16.20;;;7.50;;
71979;SDS011;59853;48.190;11.860;2022-12-07T04:10:09;16.30;;;7.57;;
71979;SDS011;59853;48.190;11.860;2022-12-07T04:12:35;17.17;;;7.43;;
71979;SDS011;59853;48.190;11.860;2022-12-07T04:15:01;15.25;;;7.75;;
71979;SDS011;59853;48.190;11.860;2022-12-07T04:17:27;15.02;;;7.60;;
71979;SDS011;59853;48.190;11.860;2022-12-07T04:19:53;18.25;;;8.35;;
71979;SDS011;59853;48.190;11.860;2022-12-07T04:22:19;15.65;;;7.13;;
71979;SDS011;59853;48.190;11.860;2022-12-07T04:24:44;15.77;;;7.85;;
71979;SDS011;59853;48.190;11.860;2022-12-07T04:27:10;19.65;;;8.23;;
71979;SDS011;59853;48.190;11.860;2022-12-07T04:29:35;15.20;;;7.05;;
71979;SDS011;59853;48.190;11.860;2022-12-07T04:32:01;15.98;;;7.43;;
71979;SDS011;59853;48.190;11.860;2022-12-07T04:34:26;15.57;;;7.40;;
71979;SDS011;59853;48.190;11.860;2022-12-07T04:36:52;15.48;;;7.32;;
71979;SDS011;59853;48.190;11.860;2022-12-07T04:39:27;17.88;;;8.40;;
71979;SDS011;59853;48.190;11.860;2022-12-07T04:41:54;17.42;;;7.97;;
71979;SDS011;59853;48.190;11.860;2022-12-07T04:44:20;18.75;;;8.27;;
71979;SDS011;59853;48.190;11.860;2022-12-07T04:46:47;15.00;;;8.02;;
71979;SDS011;59853;48.190;11.860;2022-12-07T04:49:13;16.58;;;7.68;;
71979;SDS011;59853;48.190;11.860;2022-12-07T04:51:39;14.88;;;8.15;;
71979;SDS011;59853;48.190;11.860;2022-12-07T04:54:05;17.17;;;8.23;;
71979;SDS011;59853;48.190;11.860;2022-12-07T04:56:31;15.10;;;7.32;;
71979;SDS011;59853;48.190;11.860;2022-12-07T04:58:57;14.90;;;7.30;;
71979;SDS011;59853;48.190;11.860;2022-12-07T05:01:22;16.52;;;8.02;;
71979;SDS011;59853;48.190;11.860;2022-12-07T05:03:48;18.17;;;8.23;;
71979;SDS011;59853;48.190;11.860;2022-12-07T05:06:14;15.30;;;8.18;;
71979;SDS011;59853;48.190;11.860;2022-12-07T05:08:40;17.00;;;8.23;;
71979;SDS011;59853;48.190;11.860;2022-12-07T05:11:06;19.02;;;8.98;;
71979;SDS011;59853;48.190;11.860;2022-12-07T05:13:32;18.00;;;7.47;;
71979;SDS011;59853;48.190;11.860;2022-12-07T05:15:58;18.42;;;8.55;;
71979;SDS011;59853;48.190;11.860;2022-12-07T05:18:24;14.25;;;8.00;;
71979;SDS011;59853;48.190;11.860;2022-12-07T05:20:49;22.30;;;9.70;;
71979;SDS011;59853;48.190;11.860;2022-12-07T05:23:16;16.95;;;8.32;;
71979;SDS011;59853;48.190;11.860;2022-12-07T05:25:42;20.13;;;9.07;;
71979;SDS011;59853;48.190;11.860;2022-12-07T05:28:07;16.52;;;7.97;;
71979;SDS011;59853;48.190;11.860;2022-12-07T05:30:33;18.30;;;8.90;;
71979;SDS011;59853;48.190;11.860;2022-12-07T05:32:58;15.38;;;7.65;;
71979;SDS011;59853;48.190;11.860;2022-12-07T05:35:24;17.42;;;7.85;;
71979;SDS011;59853;48.190;11.860;2022-12-07T05:37:50;16.10;;;8.60;;
71979;SDS011;59853;48.190;11.860;2022-12-07T05:40:15;18.02;;;8.40;;
71979;SDS011;59853;48.190;11.860;2022-12-07T05:42:41;17.80;;;8.80;;
71979;SDS011;59853;48.190;11.860;2022-12-07T05:45:08;21.75;;;9.40;;
71979;SDS011;59853;48.190;11.860;2022-12-07T05:47:34;29.05;;;12.05;;
71979;SDS011;59853;48.190;11.860;2022-12-07T05:50:00;18.35;;;8.88;;
71979;SDS011;59853;48.190;11.860;2022-12-07T05:52:25;19.45;;;9.15;;
71979;SDS011;59853;48.190;11.860;2022-12-07T05:54:51;17.92;;;8.63;;
71979;SDS011;59853;48.190;11.860;2022-12-07T05:57:17;19.67;;;8.68;;
71979;SDS011;59853;48.190;11.860;2022-12-07T05:59:43;15.93;;;8.73;;
71979;SDS011;59853;48.190;11.860;2022-12-07T06:02:13;19.88;;;9.00;;
71979;SDS011;59853;48.190;11.860;2022-12-07T06:04:41;19.63;;;9.00;;
71979;SDS011;59853;48.190;11.860;2022-12-07T06:07:08;18.63;;;8.57;;
71979;SDS011;59853;48.190;11.860;2022-12-07T06:09:35;19.25;;;9.07;;
71979;SDS011;59853;48.190;11.860;2022-12-07T06:12:01;19.13;;;9.15;;
71979;SDS011;59853;48.190;11.860;2022-12-07T06:14:45;16.73;;;8.38;;
71979;SDS011;59853;48.190;11.860;2022-12-07T06:17:11;20.20;;;9.25;;
71979;SDS011;59853;48.190;11.860;2022-12-07T06:19:37;15.75;;;8.15;;
71979;SDS011;59853;48.190;11.860;2022-12-07T06:22:04;18.50;;;8.35;;
71979;SDS011;59853;48.190;11.860;2022-12-07T06:24:30;19.30;;;8.55;;
71979;SDS011;59853;48.190;11.860;2022-12-07T06:26:56;17.35;;;8.85;;
71979;SDS011;59853;48.190;11.860;2022-12-07T06:29:22;17.48;;;8.57;;
71979;SDS011;59853;48.190;11.860;2022-12-07T06:31:48;17.58;;;8.88;;
71979;SDS011;59853;48.190;11.860;2022-12-07T06:34:15;21.75;;;9.38;;
71979;SDS011;59853;48.190;11.860;2022-12-07T06:36:42;17.88;;;8.40;;
71979;SDS011;59853;48.190;11.860;2022-12-07T06:39:08;20.17;;;9.70;;
71979;SDS011;59853;48.190;11.860;2022-12-07T06:41:35;18.08;;;8.70;;
71979;SDS011;59853;48.190;11.860;2022-12-07T06:44:06;19.92;;;9.15;;
71979;SDS011;59853;48.190;11.860;2022-12-07T06:46:32;18.33;;;9.10;;
71979;SDS011;59853;48.190;11.860;2022-12-07T06:48:58;16.67;;;7.63;;
71979;SDS011;59853;48.190;11.860;2022-12-07T06:51:23;19.25;;;10.07;;
71979;SDS011;59853;48.190;11.860;2022-12-07T06:53:49;28.45;;;12.05;;
71979;SDS011;59853;48.190;11.860;2022-12-07T06:56:14;20.60;;;9.27;;
71979;SDS011;59853;48.190;11.860;2022-12-07T06:58:40;18.65;;;9.18;;
71979;SDS011;59853;48.190;11.860;2022-12-07T07:01:13;20.05;;;9.27;;
71979;SDS011;59853;48.190;11.860;2022-12-07T07:03:39;18.55;;;8.50;;
71979;SDS011;59853;48.190;11.860;2022-12-07T07:06:05;18.25;;;9.13;;
71979;SDS011;59853;48.190;11.860;2022-12-07T07:08:31;17.38;;;8.05;;
71979;SDS011;59853;48.190;11.860;2022-12-07T07:10:57;16.17;;;8.43;;
71979;SDS011;59853;48.190;11.860;2022-12-07T07:13:22;17.75;;;9.32;;
71979;SDS011;59853;48.190;11.860;2022-12-07T07:15:48;16.88;;;8.52;;
71979;SDS011;59853;48.190;11.860;2022-12-07T07:18:13;29.65;;;13.77;;
71979;SDS011;59853;48.190;11.860;2022-12-07T07:20:39;19.98;;;8.77;;
71979;SDS011;59853;48.190;11.860;2022-12-07T07:23:05;20.63;;;8.70;;
71979;SDS011;59853;48.190;11.860;2022-12-07T07:25:31;18.88;;;8.68;;
71979;SDS011;59853;48.190;11.860;2022-12-07T07:27:57;20.27;;;10.73;;
71979;SDS011;59853;48.190;11.860;2022-12-07T07:30:22;18.63;;;8.18;;
71979;SDS011;59853;48.190;11.860;2022-12-07T07:32:48;18.15;;;9.18;;
71979;SDS011;59853;48.190;11.860;2022-12-07T07:35:13;20.13;;;9.13;;
71979;SDS011;59853;48.190;11.860;2022-12-07T07:37:39;17.55;;;9.35;;
71979;SDS011;59853;48.190;11.860;2022-12-07T07:40:06;15.55;;;8.20;;
71979;SDS011;59853;48.190;11.860;2022-12-07T07:42:32;19.92;;;9.05;;
71979;SDS011;59853;48.190;11.860;2022-12-07T07:44:58;24.17;;;11.40;;
71979;SDS011;59853;48.190;11.860;2022-12-07T07:47:23;27.77;;;12.02;;
71979;SDS011;59853;48.190;11.860;2022-12-07T07:49:49;18.77;;;8.65;;
71979;SDS011;59853;48.190;11.860;2022-12-07T07:52:15;15.50;;;7.07;;
71979;SDS011;59853;48.190;11.860;2022-12-07T07:54:40;17.50;;;8.40;;
71979;SDS011;59853;48.190;11.860;2022-12-07T07:57:06;16.23;;;8.27;;
71979;SDS011;59853;48.190;11.860;2022-12-07T07:59:31;16.45;;;8.27;;
71979;SDS011;59853;48.190;11.860;2022-12-07T08:01:57;17.15;;;7.72;;
71979;SDS011;59853;48.190;11.860;2022-12-07T08:04:25;16.77;;;8.05;;
71979;SDS011;59853;48.190;11.860;2022-12-07T08:06:51;13.75;;;6.75;;
71979;SDS011;59853;48.190;11.860;2022-12-07T08:09:17;15.77;;;7.25;;
71979;SDS011;59853;48.190;11.860;2022-12-07T08:11:42;15.82;;;8.18;;
71979;SDS011;59853;48.190;11.860;2022-12-07T08:14:09;14.95;;;6.55;;
71979;SDS011;59853;48.190;11.860;2022-12-07T08:16:35;17.98;;;8.13;;
71979;SDS011;59853;48.190;11.860;2022-12-07T08:19:00;18.00;;;8.35;;
71979;SDS011;59853;48.190;11.860;2022-12-07T08:21:26;14.77;;;7.85;;
71979;SDS011;59853;48.190;11.860;2022-12-07T08:23:54;21.33;;;9.23;;
71979;SDS011;59853;48.190;11.860;2022-12-07T08:26:19;15.77;;;7.88;;
71979;SDS011;59853;48.190;11.860;2022-12-07T08:28:45;14.68;;;7.00;;
71979;SDS011;59853;48.190;11.860;2022-12-07T08:31:11;12.60;;;6.30;;
71979;SDS011;59853;48.190;11.860;2022-12-07T08:33:41;14.38;;;7.35;;
71979;SDS011;59853;48.190;11.860;2022-12-07T08:36:10;14.57;;;7.88;;
71979;SDS011;59853;48.190;11.860;2022-12-07T08:38:37;14.15;;;7.88;;
71979;SDS011;59853;48.190;11.860;2022-12-07T08:41:04;14.13;;;7.57;;
71979;SDS011;59853;48.190;11.860;2022-12-07T08:43:30;13.52;;;6.97;;
71979;SDS011;59853;48.190;11.860;2022-12-07T08:46:03;16.60;;;7.75;;
71979;SDS011;59853;48.190;11.860;2022-12-07T08:48:41;18.52;;;9.20;;
71979;SDS011;59853;48.190;11.860;2022-12-07T08:51:14;18.90;;;8.85;;
71979;SDS011;59853;48.190;11.860;2022-12-07T08:53:40;17.52;;;8.27;;
71979;SDS011;59853;48.190;11.860;2022-12-07T08:56:06;14.85;;;7.03;;
71979;SDS011;59853;48.190;11.860;2022-12-07T08:58:33;13.20;;;7.50;;
71979;SDS011;59853;48.190;11.860;2022-12-07T09:00:59;14.65;;;7.57;;
71979;SDS011;59853;48.190;11.860;2022-12-07T09:03:25;16.63;;;7.72;;
71979;SDS011;59853;48.190;11.860;2022-12-07T09:05:50;17.25;;;8.57;;
71979;SDS011;59853;48.190;11.860;2022-12-07T09:08:18;16.40;;;8.00;;
71979;SDS011;59853;48.190;11.860;2022-12-07T09:10:43;15.57;;;5.95;;
71979;SDS011;59853;48.190;11.860;2022-12-07T09:13:09;13.63;;;6.65;;
71979;SDS011;59853;48.190;11.860;2022-12-07T09:15:34;14.45;;;7.40;;
71979;SDS011;59853;48.190;11.860;2022-12-07T09:18:00;25.00;;;12.30;;
71979;SDS011;59853;48.190;11.860;2022-12-07T09:20:25;13.85;;;6.78;;
71979;SDS011;59853;48.190;11.860;2022-12-07T09:22:51;16.52;;;7.18;;
71979;SDS011;59853;48.190;11.860;2022-12-07T09:25:16;14.93;;;7.20;;
71979;SDS011;59853;48.190;11.860;2022-12-07T09:27:42;13.45;;;7.28;;
71979;SDS011;59853;48.190;11.860;2022-12-07T09:30:08;14.63;;;7.88;;
71979;SDS011;59853;48.190;11.860;2022-12-07T09:32:33;13.27;;;6.75;;
71979;SDS011;59853;48.190;11.860;2022-12-07T09:34:59;11.70;;;5.88;;
71979;SDS011;59853;48.190;11.860;2022-12-07T09:37:25;17.55;;;6.93;;
71979;SDS011;59853;48.190;11.860;2022-12-07T09:39:50;11.90;;;5.63;;
71979;SDS011;59853;48.190;11.860;2022-12-07T09:42:26;12.70;;;6.90;;
71979;SDS011;59853;48.190;11.860;2022-12-07T09:44:54;16.85;;;7.13;;
71979;SDS011;59853;48.190;11.860;2022-12-07T09:47:20;11.75;;;6.35;;
71979;SDS011;59853;48.190;11.860;2022-12-07T09:49:46;12.93;;;6.68;;
71979;SDS011;59853;48.190;11.860;2022-12-07T09:54:38;42.03;;;17.35;;
71979;SDS011;59853;48.190;11.860;2022-12-07T09:57:07;22.23;;;9.73;;
71979;SDS011;59853;48.190;11.860;2022-12-07T09:59:34;21.13;;;10.70;;
71979;SDS011;59853;48.190;11.860;2022-12-07T10:02:04;32.50;;;14.77;;
71979;SDS011;59853;48.190;11.860;2022-12-07T10:04:47;12.23;;;6.25;;
71979;SDS011;59853;48.190;11.860;2022-12-07T10:07:13;14.23;;;6.43;;
71979;SDS011;59853;48.190;11.860;2022-12-07T10:09:38;13.13;;;7.22;;
71979;SDS011;59853;48.190;11.860;2022-12-07T10:14:32;13.30;;;5.93;;
71979;SDS011;59853;48.190;11.860;2022-12-07T10:16:59;9.15;;;5.45;;
71979;SDS011;59853;48.190;11.860;2022-12-07T10:19:26;11.52;;;5.55;;
71979;SDS011;59853;48.190;11.860;2022-12-07T10:22:04;14.32;;;6.90;;
71979;SDS011;59853;48.190;11.860;2022-12-07T10:24:33;15.02;;;7.47;;
71979;SDS011;59853;48.190;11.860;2022-12-07T10:26:58;9.43;;;5.10;;
71979;SDS011;59853;48.190;11.860;2022-12-07T10:29:31;9.75;;;4.70;;
71979;SDS011;59853;48.190;11.860;2022-12-07T10:32:05;11.43;;;6.40;;
71979;SDS011;59853;48.190;11.860;2022-12-07T10:34:49;12.10;;;6.90;;
71979;SDS011;59853;48.190;11.860;2022-12-07T10:42:30;11.63;;;6.50;;
71979;SDS011;59853;48.190;11.860;2022-12-07T10:47:44;12.13;;;6.28;;
71979;SDS011;59853;48.190;11.860;2022-12-07T10:58:20;10.63;;;5.88;;
71979;SDS011;59853;48.190;11.860;2022-12-07T11:01:08;12.55;;;6.28;;
71979;SDS011;59853;48.190;11.860;2022-12-07T11:03:53;9.60;;;5.30;;
71979;SDS011;59853;48.190;11.860;2022-12-07T11:06:31;12.90;;;7.15;;
71979;SDS011;59853;48.190;11.860;2022-12-07T11:11:56;19.02;;;8.20;;
71979;SDS011;59853;48.190;11.860;2022-12-07T11:17:12;9.07;;;5.25;;
71979;SDS011;59853;48.190;11.860;2022-12-07T11:30:42;7.05;;;3.50;;
71979;SDS011;59853;48.190;11.860;2022-12-07T11:33:21;9.02;;;4.30;;
71979;SDS011;59853;48.190;11.860;2022-12-07T11:38:18;8.98;;;4.18;;
71979;SDS011;59853;48.190;11.860;2022-12-07T11:40:48;9.60;;;4.22;;
71979;SDS011;59853;48.190;11.860;2022-12-07T11:43:22;8.05;;;3.72;;
71979;SDS011;59853;48.190;11.860;2022-12-07T11:45:58;12.32;;;4.47;;
71979;SDS011;59853;48.190;11.860;2022-12-07T11:48:30;7.72;;;4.25;;
71979;SDS011;59853;48.190;11.860;2022-12-07T11:50:59;7.97;;;4.15;;
71979;SDS011;59853;48.190;11.860;2022-12-07T11:53:28;7.47;;;3.97;;
71979;SDS011;59853;48.190;11.860;2022-12-07T11:56:00;9.30;;;4.30;;
71979;SDS011;59853;48.190;11.860;2022-12-07T12:01:08;8.65;;;4.57;;
71979;SDS011;59853;48.190;11.860;2022-12-07T12:03:37;9.23;;;4.45;;
71979;SDS011;59853;48.190;11.860;2022-12-07T12:06:06;10.35;;;4.20;;
71979;SDS011;59853;48.190;11.860;2022-12-07T12:08:39;13.18;;;4.78;;
71979;SDS011;59853;48.190;11.860;2022-12-07T12:14:01;10.80;;;4.40;;
71979;SDS011;59853;48.190;11.860;2022-12-07T12:19:17;9.95;;;4.13;;
71979;SDS011;59853;48.190;11.860;2022-12-07T12:21:46;9.32;;;4.35;;
71979;SDS011;59853;48.190;11.860;2022-12-07T12:24:18;8.65;;;4.32;;
71979;SDS011;59853;48.190;11.860;2022-12-07T12:26:49;11.43;;;4.88;;
71979;SDS011;59853;48.190;11.860;2022-12-07T12:29:28;9.20;;;4.78;;
71979;SDS011;59853;48.190;11.860;2022-12-07T12:32:06;9.00;;;4.65;;
71979;SDS011;59853;48.190;11.860;2022-12-07T12:34:42;10.60;;;5.00;;
71979;SDS011;59853;48.190;11.860;2022-12-07T12:37:48;12.77;;;4.50;;
71979;SDS011;59853;48.190;11.860;2022-12-07T12:42:49;9.25;;;4.25;;
71979;SDS011;59853;48.190;11.860;2022-12-07T12:45:23;9.10;;;4.82;;
71979;SDS011;59853;48.190;11.860;2022-12-07T12:50:32;7.88;;;4.35;;
71979;SDS011;59853;48.190;11.860;2022-12-07T12:56:28;9.77;;;4.30;;
71979;SDS011;59853;48.190;11.860;2022-12-07T12:58:43;7.95;;;3.63;;
71979;SDS011;59853;48.190;11.860;2022-12-07T13:03:58;8.85;;;4.78;;
71979;SDS011;59853;48.190;11.860;2022-12-07T13:08:49;10.45;;;5.05;;
71979;SDS011;59853;48.190;11.860;2022-12-07T13:11:20;10.40;;;4.50;;
71979;SDS011;59853;48.190;11.860;2022-12-07T13:13:56;9.25;;;4.25;;
71979;SDS011;59853;48.190;11.860;2022-12-07T13:16:57;8.25;;;4.13;;
71979;SDS011;59853;48.190;11.860;2022-12-07T13:20:05;9.55;;;4.50;;
71979;SDS011;59853;48.190;11.860;2022-12-07T13:25:41;10.23;;;4.68;;
71979;SDS011;59853;48.190;11.860;2022-12-07T13:28:19;10.27;;;4.72;;
71979;SDS011;59853;48.190;11.860;2022-12-07T13:30:43;11.55;;;5.22;;
71979;SDS011;59853;48.190;11.860;2022-12-07T13:33:13;15.30;;;5.25;;
71979;SDS011;59853;48.190;11.860;2022-12-07T13:35:40;11.50;;;5.20;;
71979;SDS011;59853;48.190;11.860;2022-12-07T13:38:13;12.35;;;5.35;;
71979;SDS011;59853;48.190;11.860;2022-12-07T13:43:30;10.95;;;4.90;;
71979;SDS011;59853;48.190;11.860;2022-12-07T13:45:57;53.75;;;21.55;;
71979;SDS011;59853;48.190;11.860;2022-12-07T13:48:33;68.10;;;27.10;;
71979;SDS011;59853;48.190;11.860;2022-12-07T13:51:16;23.40;;;10.45;;
71979;SDS011;59853;48.190;11.860;2022-12-07T13:54:06;11.57;;;5.40;;
71979;SDS011;59853;48.190;11.860;2022-12-07T13:56:38;11.75;;;5.30;;
71979;SDS011;59853;48.190;11.860;2022-12-07T13:59:05;10.27;;;6.05;;
71979;SDS011;59853;48.190;11.860;2022-12-07T14:01:42;12.93;;;6.82;;
71979;SDS011;59853;48.190;11.860;2022-12-07T14:04:36;12.48;;;5.57;;
71979;SDS011;59853;48.190;11.860;2022-12-07T14:09:53;8.88;;;5.10;;
71979;SDS011;59853;48.190;11.860;2022-12-07T14:12:22;7.97;;;3.90;;
71979;SDS011;59853;48.190;11.860;2022-12-07T14:14:49;7.22;;;4.00;;
71979;SDS011;59853;48.190;11.860;2022-12-07T14:17:16;8.23;;;4.25;;
71979;SDS011;59853;48.190;11.860;2022-12-07T14:19:47;9.43;;;4.05;;
71979;SDS011;59853;48.190;11.860;2022-12-07T14:22:33;9.45;;;4.47;;
71979;SDS011;59853;48.190;11.860;2022-12-07T14:27:39;8.93;;;4.50;;
71979;SDS011;59853;48.190;11.860;2022-12-07T14:30:05;10.63;;;4.15;;
71979;SDS011;59853;48.190;11.860;2022-12-07T14:32:35;10.00;;;5.10;;
71979;SDS011;59853;48.190;11.860;2022-12-07T14:35:12;9.05;;;4.75;;
71979;SDS011;59853;48.190;11.860;2022-12-07T14:37:39;9.85;;;5.13;;
71979;SDS011;59853;48.190;11.860;2022-12-07T14:40:13;10.45;;;4.88;;
71979;SDS011;59853;48.190;11.860;2022-12-07T14:42:45;9.45;;;4.82;;
71979;SDS011;59853;48.190;11.860;2022-12-07T14:45:19;11.07;;;5.97;;
71979;SDS011;59853;48.190;11.860;2022-12-07T14:47:46;13.10;;;6.35;;
71979;SDS011;59853;48.190;11.860;2022-12-07T14:50:37;11.75;;;6.07;;
71979;SDS011;59853;48.190;11.860;2022-12-07T14:53:10;11.73;;;5.95;;
71979;SDS011;59853;48.190;11.860;2022-12-07T14:55:38;14.07;;;6.30;;
71979;SDS011;59853;48.190;11.860;2022-12-07T14:58:03;10.95;;;6.30;;
71979;SDS011;59853;48.190;11.860;2022-12-07T15:00:29;15.65;;;7.07;;
71979;SDS011;59853;48.190;11.860;2022-12-07T15:02:55;11.63;;;5.40;;
71979;SDS011;59853;48.190;11.860;2022-12-07T15:05:21;12.23;;;6.60;;
71979;SDS011;59853;48.190;11.860;2022-12-07T15:07:47;12.82;;;7.07;;
71979;SDS011;59853;48.190;11.860;2022-12-07T15:10:34;11.68;;;6.32;;
71979;SDS011;59853;48.190;11.860;2022-12-07T15:13:04;11.95;;;5.82;;
71979;SDS011;59853;48.190;11.860;2022-12-07T15:15:49;11.88;;;6.03;;
71979;SDS011;59853;48.190;11.860;2022-12-07T15:18:16;13.20;;;6.22;;
71979;SDS011;59853;48.190;11.860;2022-12-07T15:20:42;13.98;;;6.40;;
71979;SDS011;59853;48.190;11.860;2022-12-07T15:23:08;14.13;;;6.45;;
71979;SDS011;59853;48.190;11.860;2022-12-07T15:25:33;12.27;;;5.85;;
71979;SDS011;59853;48.190;11.860;2022-12-07T15:27:59;13.48;;;6.45;;
71979;SDS011;59853;48.190;11.860;2022-12-07T15:30:29;12.60;;;6.03;;
71979;SDS011;59853;48.190;11.860;2022-12-07T15:32:55;15.30;;;6.68;;
71979;SDS011;59853;48.190;11.860;2022-12-07T15:35:20;13.45;;;6.85;;
71979;SDS011;59853;48.190;11.860;2022-12-07T15:37:46;14.77;;;6.70;;
71979;SDS011;59853;48.190;11.860;2022-12-07T15:40:12;11.63;;;6.10;;
71979;SDS011;59853;48.190;11.860;2022-12-07T15:42:38;15.07;;;6.72;;
71979;SDS011;59853;48.190;11.860;2022-12-07T15:45:05;16.50;;;6.63;;
71979;SDS011;59853;48.190;11.860;2022-12-07T15:47:33;16.20;;;7.18;;
71979;SDS011;59853;48.190;11.860;2022-12-07T15:50:03;16.42;;;8.20;;
71979;SDS011;59853;48.190;11.860;2022-12-07T15:52:30;18.77;;;8.88;;
71979;SDS011;59853;48.190;11.860;2022-12-07T15:54:56;17.83;;;8.52;;
71979;SDS011;59853;48.190;11.860;2022-12-07T15:57:22;23.67;;;9.63;;
71979;SDS011;59853;48.190;11.860;2022-12-07T15:59:48;18.42;;;9.13;;
71979;SDS011;59853;48.190;11.860;2022-12-07T16:02:13;21.65;;;9.23;;
71979;SDS011;59853;48.190;11.860;2022-12-07T16:04:39;17.48;;;8.35;;
71979;SDS011;59853;48.190;11.860;2022-12-07T16:07:05;18.95;;;9.23;;
71979;SDS011;59853;48.190;11.860;2022-12-07T16:09:31;19.73;;;9.43;;
71979;SDS011;59853;48.190;11.860;2022-12-07T16:11:56;23.10;;;10.05;;
71979;SDS011;59853;48.190;11.860;2022-12-07T16:14:22;18.50;;;9.18;;
71979;SDS011;59853;48.190;11.860;2022-12-07T16:16:48;19.35;;;9.88;;
71979;SDS011;59853;48.190;11.860;2022-12-07T16:19:14;22.10;;;10.40;;
71979;SDS011;59853;48.190;11.860;2022-12-07T16:21:40;16.15;;;6.93;;